sensor_id;sensor_type;location;lat;lon;timestamp;P1;durP1;ratioP1;P2;durP2;ratioP2
54430;SDS011;40342;52.998;5.862;2023-06-14T00:00:38;2.47;;;1.65;;
54430;SDS011;40342;52.998;5.862;2023-06-14T00:03:08;3.03;;;1.48;;
54430;SDS011;40342;52.998;5.862;2023-06-14T00:05:35;5.20;;;1.52;;
54430;SDS011;40342;52.998;5.862;2023-06-14T00:08:05;4.65;;;1.42;;
54430;SDS011;40342;52.998;5.862;2023-06-14T00:10:38;1.35;;;1.23;;
54430;SDS011;40342;52.998;5.862;2023-06-14T00:13:06;4.65;;;1.50;;
54430;SDS011;40342;52.998;5.862;2023-06-14T00:15:35;4.00;;;1.58;;
54430;SDS011;40342;52.998;5.862;2023-06-14T00:18:01;2.58;;;1.50;;
54430;SDS011;40342;52.998;5.862;2023-06-14T00:20:27;2.53;;;1.38;;
54430;SDS011;40342;52.998;5.862;2023-06-14T00:22:53;3.92;;;1.50;;
54430;SDS011;40342;52.998;5.862;2023-06-14T00:25:22;3.38;;;1.70;;
54430;SDS011;40342;52.998;5.862;2023-06-14T00:27:52;5.40;;;1.50;;
54430;SDS011;40342;52.998;5.862;2023-06-14T00:30:18;1.88;;;1.52;;
54430;SDS011;40342;52.998;5.862;2023-06-14T00:32:44;5.63;;;1.60;;
54430;SDS011;40342;52.998;5.862;2023-06-14T00:35:10;4.78;;;1.77;;
54430;SDS011;40342;52.998;5.862;2023-06-14T00:37:36;2.75;;;1.60;;
54430;SDS011;40342;52.998;5.862;2023-06-14T00:40:03;1.70;;;1.60;;
54430;SDS011;40342;52.998;5.862;2023-06-14T00:42:29;4.97;;;1.63;;
54430;SDS011;40342;52.998;5.862;2023-06-14T00:44:55;2.75;;;1.55;;
54430;SDS011;40342;52.998;5.862;2023-06-14T00:47:21;2.60;;;1.90;;
54430;SDS011;40342;52.998;5.862;2023-06-14T00:49:47;4.18;;;1.98;;
54430;SDS011;40342;52.998;5.862;2023-06-14T00:52:14;4.15;;;1.60;;
54430;SDS011;40342;52.998;5.862;2023-06-14T00:54:41;2.03;;;1.60;;
54430;SDS011;40342;52.998;5.862;2023-06-14T00:57:08;2.30;;;1.40;;
54430;SDS011;40342;52.998;5.862;2023-06-14T00:59:36;2.33;;;1.40;;
54430;SDS011;40342;52.998;5.862;2023-06-14T01:02:11;4.30;;;1.30;;
54430;SDS011;40342;52.998;5.862;2023-06-14T01:04:37;4.43;;;1.40;;
54430;SDS011;40342;52.998;5.862;2023-06-14T01:15:18;2.60;;;1.58;;
54430;SDS011;40342;52.998;5.862;2023-06-14T01:17:45;3.35;;;1.40;;
54430;SDS011;40342;52.998;5.862;2023-06-14T01:20:16;4.05;;;1.65;;
54430;SDS011;40342;52.998;5.862;2023-06-14T01:22:51;2.45;;;1.58;;
54430;SDS011;40342;52.998;5.862;2023-06-14T01:25:20;3.95;;;1.42;;
54430;SDS011;40342;52.998;5.862;2023-06-14T01:27:57;2.10;;;1.40;;
54430;SDS011;40342;52.998;5.862;2023-06-14T01:30:25;2.95;;;1.65;;
54430;SDS011;40342;52.998;5.862;2023-06-14T01:32:52;2.38;;;1.42;;
54430;SDS011;40342;52.998;5.862;2023-06-14T01:35:19;4.80;;;1.58;;
54430;SDS011;40342;52.998;5.862;2023-06-14T01:37:46;1.92;;;1.40;;
54430;SDS011;40342;52.998;5.862;2023-06-14T01:40:13;2.05;;;1.42;;
54430;SDS011;40342;52.998;5.862;2023-06-14T01:42:40;3.22;;;1.50;;
54430;SDS011;40342;52.998;5.862;2023-06-14T01:45:07;2.90;;;1.40;;
54430;SDS011;40342;52.998;5.862;2023-06-14T01:47:34;3.50;;;1.45;;
54430;SDS011;40342;52.998;5.862;2023-06-14T01:50:01;2.13;;;1.70;;
54430;SDS011;40342;52.998;5.862;2023-06-14T01:52:30;6.90;;;1.65;;
54430;SDS011;40342;52.998;5.862;2023-06-14T01:54:56;4.22;;;1.70;;
54430;SDS011;40342;52.998;5.862;2023-06-14T01:57:23;2.55;;;1.50;;
54430;SDS011;40342;52.998;5.862;2023-06-14T01:59:50;1.85;;;1.65;;
54430;SDS011;40342;52.998;5.862;2023-06-14T02:02:15;3.28;;;1.50;;
54430;SDS011;40342;52.998;5.862;2023-06-14T02:04:41;1.80;;;1.60;;
54430;SDS011;40342;52.998;5.862;2023-06-14T02:07:07;4.28;;;1.65;;
54430;SDS011;40342;52.998;5.862;2023-06-14T02:09:33;6.28;;;1.70;;
54430;SDS011;40342;52.998;5.862;2023-06-14T02:11:59;2.80;;;1.60;;
54430;SDS011;40342;52.998;5.862;2023-06-14T02:14:25;5.82;;;1.67;;
54430;SDS011;40342;52.998;5.862;2023-06-14T02:16:51;3.17;;;1.55;;
54430;SDS011;40342;52.998;5.862;2023-06-14T02:19:18;4.88;;;1.55;;
54430;SDS011;40342;52.998;5.862;2023-06-14T02:21:44;4.63;;;1.65;;
54430;SDS011;40342;52.998;5.862;2023-06-14T02:24:10;4.18;;;1.60;;
54430;SDS011;40342;52.998;5.862;2023-06-14T02:26:36;1.77;;;1.25;;
54430;SDS011;40342;52.998;5.862;2023-06-14T02:29:03;2.72;;;1.75;;
54430;SDS011;40342;52.998;5.862;2023-06-14T02:31:30;2.40;;;1.70;;
54430;SDS011;40342;52.998;5.862;2023-06-14T02:33:56;2.65;;;1.60;;
54430;SDS011;40342;52.998;5.862;2023-06-14T02:36:22;5.85;;;1.67;;
54430;SDS011;40342;52.998;5.862;2023-06-14T02:38:48;2.72;;;1.52;;
54430;SDS011;40342;52.998;5.862;2023-06-14T02:41:13;3.38;;;1.50;;
54430;SDS011;40342;52.998;5.862;2023-06-14T02:43:39;1.40;;;1.20;;
54430;SDS011;40342;52.998;5.862;2023-06-14T02:46:05;4.40;;;1.60;;
54430;SDS011;40342;52.998;5.862;2023-06-14T02:48:31;1.30;;;1.30;;
54430;SDS011;40342;52.998;5.862;2023-06-14T02:50:56;3.10;;;1.63;;
54430;SDS011;40342;52.998;5.862;2023-06-14T02:53:22;2.83;;;2.15;;
54430;SDS011;40342;52.998;5.862;2023-06-14T02:55:47;2.53;;;1.30;;
54430;SDS011;40342;52.998;5.862;2023-06-14T02:58:13;3.67;;;1.58;;
54430;SDS011;40342;52.998;5.862;2023-06-14T03:00:39;4.50;;;1.70;;
54430;SDS011;40342;52.998;5.862;2023-06-14T03:03:06;2.53;;;1.55;;
54430;SDS011;40342;52.998;5.862;2023-06-14T03:05:38;2.30;;;1.80;;
54430;SDS011;40342;52.998;5.862;2023-06-14T03:08:12;1.70;;;1.60;;
54430;SDS011;40342;52.998;5.862;2023-06-14T03:10:45;3.63;;;1.65;;
54430;SDS011;40342;52.998;5.862;2023-06-14T03:13:11;1.90;;;1.40;;
54430;SDS011;40342;52.998;5.862;2023-06-14T03:15:38;1.98;;;1.35;;
54430;SDS011;40342;52.998;5.862;2023-06-14T03:18:04;2.22;;;1.73;;
54430;SDS011;40342;52.998;5.862;2023-06-14T03:20:29;2.55;;;1.60;;
54430;SDS011;40342;52.998;5.862;2023-06-14T03:22:58;2.92;;;1.67;;
54430;SDS011;40342;52.998;5.862;2023-06-14T03:25:24;3.17;;;1.65;;
54430;SDS011;40342;52.998;5.862;2023-06-14T03:27:51;3.55;;;1.42;;
54430;SDS011;40342;52.998;5.862;2023-06-14T03:30:16;3.78;;;1.55;;
54430;SDS011;40342;52.998;5.862;2023-06-14T03:32:42;3.35;;;1.50;;
54430;SDS011;40342;52.998;5.862;2023-06-14T03:35:08;1.63;;;1.52;;
54430;SDS011;40342;52.998;5.862;2023-06-14T03:37:33;3.42;;;1.52;;
54430;SDS011;40342;52.998;5.862;2023-06-14T03:39:59;1.85;;;1.50;;
54430;SDS011;40342;52.998;5.862;2023-06-14T03:42:25;2.65;;;1.75;;
54430;SDS011;40342;52.998;5.862;2023-06-14T03:44:51;2.60;;;1.60;;
54430;SDS011;40342;52.998;5.862;2023-06-14T03:47:17;3.35;;;1.50;;
54430;SDS011;40342;52.998;5.862;2023-06-14T03:49:42;3.25;;;1.30;;
54430;SDS011;40342;52.998;5.862;2023-06-14T03:52:08;1.48;;;1.38;;
54430;SDS011;40342;52.998;5.862;2023-06-14T03:54:33;3.25;;;1.48;;
54430;SDS011;40342;52.998;5.862;2023-06-14T03:56:59;1.70;;;1.38;;
54430;SDS011;40342;52.998;5.862;2023-06-14T03:59:24;4.15;;;1.58;;
54430;SDS011;40342;52.998;5.862;2023-06-14T04:01:51;3.28;;;1.50;;
54430;SDS011;40342;52.998;5.862;2023-06-14T04:04:16;2.03;;;1.60;;
54430;SDS011;40342;52.998;5.862;2023-06-14T04:06:43;4.53;;;1.65;;
54430;SDS011;40342;52.998;5.862;2023-06-14T04:09:09;1.60;;;1.50;;
54430;SDS011;40342;52.998;5.862;2023-06-14T04:11:34;3.38;;;1.50;;
54430;SDS011;40342;52.998;5.862;2023-06-14T04:14:01;3.92;;;1.73;;
54430;SDS011;40342;52.998;5.862;2023-06-14T04:16:27;1.70;;;1.55;;
54430;SDS011;40342;52.998;5.862;2023-06-14T04:18:54;2.67;;;1.75;;
54430;SDS011;40342;52.998;5.862;2023-06-14T04:21:20;3.08;;;1.80;;
54430;SDS011;40342;52.998;5.862;2023-06-14T04:23:46;1.70;;;1.58;;
54430;SDS011;40342;52.998;5.862;2023-06-14T04:26:11;4.28;;;2.08;;
54430;SDS011;40342;52.998;5.862;2023-06-14T04:28:37;2.80;;;1.70;;
54430;SDS011;40342;52.998;5.862;2023-06-14T04:31:08;2.60;;;1.58;;
54430;SDS011;40342;52.998;5.862;2023-06-14T04:33:35;1.92;;;1.67;;
54430;SDS011;40342;52.998;5.862;2023-06-14T04:36:08;5.22;;;1.98;;
54430;SDS011;40342;52.998;5.862;2023-06-14T04:38:36;2.25;;;1.65;;
54430;SDS011;40342;52.998;5.862;2023-06-14T04:41:02;5.15;;;1.95;;
54430;SDS011;40342;52.998;5.862;2023-06-14T04:43:28;2.53;;;1.83;;
54430;SDS011;40342;52.998;5.862;2023-06-14T04:45:53;3.13;;;2.05;;
54430;SDS011;40342;52.998;5.862;2023-06-14T04:48:21;1.75;;;1.42;;
54430;SDS011;40342;52.998;5.862;2023-06-14T04:50:47;6.72;;;2.72;;
54430;SDS011;40342;52.998;5.862;2023-06-14T04:53:13;2.92;;;1.80;;
54430;SDS011;40342;52.998;5.862;2023-06-14T04:55:39;5.25;;;1.70;;
54430;SDS011;40342;52.998;5.862;2023-06-14T04:58:04;1.95;;;1.70;;
54430;SDS011;40342;52.998;5.862;2023-06-14T05:00:31;2.65;;;1.80;;
54430;SDS011;40342;52.998;5.862;2023-06-14T05:02:56;2.35;;;1.65;;
54430;SDS011;40342;52.998;5.862;2023-06-14T05:05:22;3.50;;;1.98;;
54430;SDS011;40342;52.998;5.862;2023-06-14T05:07:49;4.80;;;1.95;;
54430;SDS011;40342;52.998;5.862;2023-06-14T05:10:14;2.33;;;1.80;;
54430;SDS011;40342;52.998;5.862;2023-06-14T05:12:40;3.85;;;1.60;;
54430;SDS011;40342;52.998;5.862;2023-06-14T05:15:08;2.08;;;1.98;;
54430;SDS011;40342;52.998;5.862;2023-06-14T05:17:34;2.25;;;1.95;;
54430;SDS011;40342;52.998;5.862;2023-06-14T05:20:01;2.58;;;1.80;;
54430;SDS011;40342;52.998;5.862;2023-06-14T05:22:27;5.63;;;1.92;;
54430;SDS011;40342;52.998;5.862;2023-06-14T05:24:52;3.90;;;1.98;;
54430;SDS011;40342;52.998;5.862;2023-06-14T05:27:18;2.08;;;1.90;;
54430;SDS011;40342;52.998;5.862;2023-06-14T05:29:43;4.07;;;2.13;;
54430;SDS011;40342;52.998;5.862;2023-06-14T05:32:09;3.00;;;2.10;;
54430;SDS011;40342;52.998;5.862;2023-06-14T05:34:34;3.90;;;2.60;;
54430;SDS011;40342;52.998;5.862;2023-06-14T05:37:00;1.95;;;1.80;;
54430;SDS011;40342;52.998;5.862;2023-06-14T05:39:26;2.40;;;2.20;;
54430;SDS011;40342;52.998;5.862;2023-06-14T05:41:51;8.70;;;2.30;;
54430;SDS011;40342;52.998;5.862;2023-06-14T05:44:17;4.70;;;2.17;;
54430;SDS011;40342;52.998;5.862;2023-06-14T05:46:43;3.45;;;1.90;;
54430;SDS011;40342;52.998;5.862;2023-06-14T05:49:08;3.38;;;2.00;;
54430;SDS011;40342;52.998;5.862;2023-06-14T05:51:34;4.72;;;1.98;;
54430;SDS011;40342;52.998;5.862;2023-06-14T05:54:00;2.67;;;2.25;;
54430;SDS011;40342;52.998;5.862;2023-06-14T05:56:26;2.90;;;2.17;;
54430;SDS011;40342;52.998;5.862;2023-06-14T05:58:51;3.70;;;2.10;;
54430;SDS011;40342;52.998;5.862;2023-06-14T06:01:17;2.90;;;2.00;;
54430;SDS011;40342;52.998;5.862;2023-06-14T06:03:42;6.43;;;2.33;;
54430;SDS011;40342;52.998;5.862;2023-06-14T06:06:12;1.95;;;1.77;;
54430;SDS011;40342;52.998;5.862;2023-06-14T06:08:37;6.53;;;2.40;;
54430;SDS011;40342;52.998;5.862;2023-06-14T06:11:03;2.70;;;1.83;;
54430;SDS011;40342;52.998;5.862;2023-06-14T06:13:29;3.58;;;2.00;;
54430;SDS011;40342;52.998;5.862;2023-06-14T06:15:54;2.50;;;1.70;;
54430;SDS011;40342;52.998;5.862;2023-06-14T06:18:22;4.47;;;2.03;;
54430;SDS011;40342;52.998;5.862;2023-06-14T06:20:47;3.88;;;1.90;;
54430;SDS011;40342;52.998;5.862;2023-06-14T06:23:13;3.90;;;2.13;;
54430;SDS011;40342;52.998;5.862;2023-06-14T06:25:39;3.47;;;1.95;;
54430;SDS011;40342;52.998;5.862;2023-06-14T06:28:05;3.58;;;2.17;;
54430;SDS011;40342;52.998;5.862;2023-06-14T06:30:30;5.57;;;2.20;;
54430;SDS011;40342;52.998;5.862;2023-06-14T06:32:56;3.83;;;1.58;;
54430;SDS011;40342;52.998;5.862;2023-06-14T06:35:22;2.30;;;1.95;;
54430;SDS011;40342;52.998;5.862;2023-06-14T06:37:48;5.22;;;2.00;;
54430;SDS011;40342;52.998;5.862;2023-06-14T06:40:13;2.58;;;2.00;;
54430;SDS011;40342;52.998;5.862;2023-06-14T06:42:39;2.10;;;1.85;;
54430;SDS011;40342;52.998;5.862;2023-06-14T06:45:04;2.75;;;1.55;;
54430;SDS011;40342;52.998;5.862;2023-06-14T06:47:31;1.73;;;1.63;;
54430;SDS011;40342;52.998;5.862;2023-06-14T06:49:56;4.13;;;1.92;;
54430;SDS011;40342;52.998;5.862;2023-06-14T06:52:22;2.80;;;1.83;;
54430;SDS011;40342;52.998;5.862;2023-06-14T06:54:47;3.70;;;1.70;;
54430;SDS011;40342;52.998;5.862;2023-06-14T06:57:14;3.45;;;1.48;;
54430;SDS011;40342;52.998;5.862;2023-06-14T06:59:39;2.85;;;1.90;;
54430;SDS011;40342;52.998;5.862;2023-06-14T07:02:05;2.80;;;1.70;;
54430;SDS011;40342;52.998;5.862;2023-06-14T07:04:31;5.15;;;1.80;;
54430;SDS011;40342;52.998;5.862;2023-06-14T07:06:56;4.80;;;1.77;;
54430;SDS011;40342;52.998;5.862;2023-06-14T07:09:22;8.05;;;1.70;;
54430;SDS011;40342;52.998;5.862;2023-06-14T07:11:49;1.98;;;1.40;;
54430;SDS011;40342;52.998;5.862;2023-06-14T07:14:14;2.13;;;1.30;;
54430;SDS011;40342;52.998;5.862;2023-06-14T07:16:40;2.42;;;1.65;;
54430;SDS011;40342;52.998;5.862;2023-06-14T07:19:06;3.60;;;1.42;;
54430;SDS011;40342;52.998;5.862;2023-06-14T07:21:31;7.47;;;1.80;;
54430;SDS011;40342;52.998;5.862;2023-06-14T07:23:57;5.13;;;1.67;;
54430;SDS011;40342;52.998;5.862;2023-06-14T07:26:23;4.35;;;1.67;;
54430;SDS011;40342;52.998;5.862;2023-06-14T07:28:48;3.00;;;1.45;;
54430;SDS011;40342;52.998;5.862;2023-06-14T07:31:17;3.25;;;1.10;;
54430;SDS011;40342;52.998;5.862;2023-06-14T07:33:44;5.43;;;1.48;;
54430;SDS011;40342;52.998;5.862;2023-06-14T07:36:10;1.50;;;1.40;;
54430;SDS011;40342;52.998;5.862;2023-06-14T07:38:36;2.53;;;1.33;;
54430;SDS011;40342;52.998;5.862;2023-06-14T07:41:01;3.10;;;1.27;;
54430;SDS011;40342;52.998;5.862;2023-06-14T07:43:27;2.25;;;1.40;;
54430;SDS011;40342;52.998;5.862;2023-06-14T07:45:53;2.72;;;1.15;;
54430;SDS011;40342;52.998;5.862;2023-06-14T07:48:19;2.40;;;1.35;;
54430;SDS011;40342;52.998;5.862;2023-06-14T07:50:44;1.63;;;1.50;;
54430;SDS011;40342;52.998;5.862;2023-06-14T07:53:10;3.08;;;1.42;;
54430;SDS011;40342;52.998;5.862;2023-06-14T07:55:36;1.33;;;1.20;;
54430;SDS011;40342;52.998;5.862;2023-06-14T07:58:05;2.75;;;1.60;;
54430;SDS011;40342;52.998;5.862;2023-06-14T08:00:31;1.27;;;1.08;;
54430;SDS011;40342;52.998;5.862;2023-06-14T08:02:57;1.90;;;1.33;;
54430;SDS011;40342;52.998;5.862;2023-06-14T08:05:24;4.32;;;1.55;;
54430;SDS011;40342;52.998;5.862;2023-06-14T08:07:50;3.58;;;1.58;;
54430;SDS011;40342;52.998;5.862;2023-06-14T08:10:16;3.28;;;1.50;;
54430;SDS011;40342;52.998;5.862;2023-06-14T08:12:42;2.08;;;1.38;;
54430;SDS011;40342;52.998;5.862;2023-06-14T08:15:08;1.63;;;1.30;;
54430;SDS011;40342;52.998;5.862;2023-06-14T08:17:34;2.17;;;1.23;;
54430;SDS011;40342;52.998;5.862;2023-06-14T08:20:00;3.53;;;1.50;;
54430;SDS011;40342;52.998;5.862;2023-06-14T08:22:26;3.67;;;1.40;;
54430;SDS011;40342;52.998;5.862;2023-06-14T08:24:53;2.17;;;1.17;;
54430;SDS011;40342;52.998;5.862;2023-06-14T08:27:19;1.67;;;1.45;;
54430;SDS011;40342;52.998;5.862;2023-06-14T08:29:45;2.53;;;1.40;;
54430;SDS011;40342;52.998;5.862;2023-06-14T08:32:11;1.55;;;1.35;;
54430;SDS011;40342;52.998;5.862;2023-06-14T08:34:37;2.92;;;1.45;;
54430;SDS011;40342;52.998;5.862;2023-06-14T08:37:03;3.90;;;1.50;;
54430;SDS011;40342;52.998;5.862;2023-06-14T08:39:30;5.13;;;1.67;;
54430;SDS011;40342;52.998;5.862;2023-06-14T08:41:55;1.35;;;1.25;;
54430;SDS011;40342;52.998;5.862;2023-06-14T08:44:22;2.08;;;1.20;;
54430;SDS011;40342;52.998;5.862;2023-06-14T08:46:48;3.03;;;1.50;;
54430;SDS011;40342;52.998;5.862;2023-06-14T08:49:15;2.85;;;1.27;;
54430;SDS011;40342;52.998;5.862;2023-06-14T08:51:42;4.78;;;1.40;;
54430;SDS011;40342;52.998;5.862;2023-06-14T08:54:09;5.05;;;1.50;;
54430;SDS011;40342;52.998;5.862;2023-06-14T08:56:37;2.83;;;1.50;;
54430;SDS011;40342;52.998;5.862;2023-06-14T08:59:03;3.25;;;1.67;;
54430;SDS011;40342;52.998;5.862;2023-06-14T09:01:33;4.18;;;1.38;;
54430;SDS011;40342;52.998;5.862;2023-06-14T09:03:59;2.00;;;1.30;;
54430;SDS011;40342;52.998;5.862;2023-06-14T09:06:25;1.75;;;1.30;;
54430;SDS011;40342;52.998;5.862;2023-06-14T09:08:53;1.88;;;1.20;;
54430;SDS011;40342;52.998;5.862;2023-06-14T09:11:20;2.60;;;1.15;;
54430;SDS011;40342;52.998;5.862;2023-06-14T09:13:46;2.50;;;1.48;;
54430;SDS011;40342;52.998;5.862;2023-06-14T09:16:12;2.75;;;1.20;;
54430;SDS011;40342;52.998;5.862;2023-06-14T09:18:41;4.38;;;1.30;;
54430;SDS011;40342;52.998;5.862;2023-06-14T09:21:09;3.00;;;1.30;;
54430;SDS011;40342;52.998;5.862;2023-06-14T09:23:36;3.42;;;1.00;;
54430;SDS011;40342;52.998;5.862;2023-06-14T09:26:16;5.18;;;1.33;;
54430;SDS011;40342;52.998;5.862;2023-06-14T09:31:27;3.05;;;1.35;;
54430;SDS011;40342;52.998;5.862;2023-06-14T09:33:56;4.40;;;1.58;;
54430;SDS011;40342;52.998;5.862;2023-06-14T09:36:22;5.10;;;1.20;;
54430;SDS011;40342;52.998;5.862;2023-06-14T09:39:07;1.55;;;1.27;;
54430;SDS011;40342;52.998;5.862;2023-06-14T09:41:37;3.85;;;1.50;;
54430;SDS011;40342;52.998;5.862;2023-06-14T09:44:05;1.83;;;1.17;;
54430;SDS011;40342;52.998;5.862;2023-06-14T09:46:32;2.97;;;1.13;;
54430;SDS011;40342;52.998;5.862;2023-06-14T09:48:58;1.83;;;1.30;;
54430;SDS011;40342;52.998;5.862;2023-06-14T09:51:25;1.58;;;1.08;;
54430;SDS011;40342;52.998;5.862;2023-06-14T09:53:52;2.88;;;1.35;;
54430;SDS011;40342;52.998;5.862;2023-06-14T09:56:34;3.28;;;1.27;;
54430;SDS011;40342;52.998;5.862;2023-06-14T09:59:04;1.30;;;1.08;;
54430;SDS011;40342;52.998;5.862;2023-06-14T10:01:31;4.03;;;1.27;;
54430;SDS011;40342;52.998;5.862;2023-06-14T10:04:02;1.25;;;1.00;;
54430;SDS011;40342;52.998;5.862;2023-06-14T10:06:29;2.17;;;1.40;;
54430;SDS011;40342;52.998;5.862;2023-06-14T10:08:59;1.67;;;1.58;;
54430;SDS011;40342;52.998;5.862;2023-06-14T10:11:25;1.13;;;1.02;;
54430;SDS011;40342;52.998;5.862;2023-06-14T10:13:52;3.00;;;1.23;;
54430;SDS011;40342;52.998;5.862;2023-06-14T10:16:25;3.50;;;1.17;;
54430;SDS011;40342;52.998;5.862;2023-06-14T10:19:20;1.20;;;1.10;;
54430;SDS011;40342;52.998;5.862;2023-06-14T10:21:51;3.47;;;1.10;;
54430;SDS011;40342;52.998;5.862;2023-06-14T10:24:44;2.78;;;1.17;;
54430;SDS011;40342;52.998;5.862;2023-06-14T10:27:13;1.55;;;1.05;;
54430;SDS011;40342;52.998;5.862;2023-06-14T10:32:26;2.85;;;1.20;;
54430;SDS011;40342;52.998;5.862;2023-06-14T10:34:56;5.55;;;1.20;;
54430;SDS011;40342;52.998;5.862;2023-06-14T10:37:34;1.52;;;1.20;;
54430;SDS011;40342;52.998;5.862;2023-06-14T10:40:02;2.58;;;1.40;;
54430;SDS011;40342;52.998;5.862;2023-06-14T10:42:32;4.30;;;1.30;;
54430;SDS011;40342;52.998;5.862;2023-06-14T10:44:58;2.38;;;1.40;;
54430;SDS011;40342;52.998;5.862;2023-06-14T10:47:26;4.68;;;1.38;;
54430;SDS011;40342;52.998;5.862;2023-06-14T10:52:39;2.55;;;1.60;;
54430;SDS011;40342;52.998;5.862;2023-06-14T10:57:47;2.05;;;1.63;;
54430;SDS011;40342;52.998;5.862;2023-06-14T11:00:16;2.85;;;1.33;;
54430;SDS011;40342;52.998;5.862;2023-06-14T11:05:25;4.15;;;1.30;;
54430;SDS011;40342;52.998;5.862;2023-06-14T11:10:44;1.25;;;1.15;;
54430;SDS011;40342;52.998;5.862;2023-06-14T11:13:12;4.78;;;1.23;;
54430;SDS011;40342;52.998;5.862;2023-06-14T11:15:44;1.60;;;1.38;;
54430;SDS011;40342;52.998;5.862;2023-06-14T11:18:12;2.55;;;1.33;;
54430;SDS011;40342;52.998;5.862;2023-06-14T11:20:39;3.67;;;1.02;;
54430;SDS011;40342;52.998;5.862;2023-06-14T11:23:05;6.88;;;1.45;;
54430;SDS011;40342;52.998;5.862;2023-06-14T11:25:31;1.77;;;1.10;;
54430;SDS011;40342;52.998;5.862;2023-06-14T11:27:57;3.17;;;1.30;;
54430;SDS011;40342;52.998;5.862;2023-06-14T11:30:23;1.35;;;1.25;;
54430;SDS011;40342;52.998;5.862;2023-06-14T11:32:50;1.85;;;1.17;;
54430;SDS011;40342;52.998;5.862;2023-06-14T11:35:17;1.75;;;1.08;;
54430;SDS011;40342;52.998;5.862;2023-06-14T11:37:44;3.90;;;1.30;;
54430;SDS011;40342;52.998;5.862;2023-06-14T11:40:10;1.45;;;1.23;;
54430;SDS011;40342;52.998;5.862;2023-06-14T11:42:37;1.48;;;1.10;;
54430;SDS011;40342;52.998;5.862;2023-06-14T11:45:07;1.08;;;0.98;;
54430;SDS011;40342;52.998;5.862;2023-06-14T11:47:33;1.40;;;1.30;;
54430;SDS011;40342;52.998;5.862;2023-06-14T11:50:00;1.38;;;1.27;;
54430;SDS011;40342;52.998;5.862;2023-06-14T11:52:26;6.10;;;1.40;;
54430;SDS011;40342;52.998;5.862;2023-06-14T11:54:52;2.30;;;1.20;;
54430;SDS011;40342;52.998;5.862;2023-06-14T11:57:18;4.63;;;1.40;;
54430;SDS011;40342;52.998;5.862;2023-06-14T11:59:44;3.67;;;1.10;;
54430;SDS011;40342;52.998;5.862;2023-06-14T12:02:14;3.20;;;1.35;;
54430;SDS011;40342;52.998;5.862;2023-06-14T12:04:41;0.70;;;0.70;;
54430;SDS011;40342;52.998;5.862;2023-06-14T12:07:16;2.22;;;1.15;;
54430;SDS011;40342;52.998;5.862;2023-06-14T12:12:21;2.03;;;1.10;;
54430;SDS011;40342;52.998;5.862;2023-06-14T12:14:47;2.15;;;1.00;;
54430;SDS011;40342;52.998;5.862;2023-06-14T12:17:16;1.02;;;0.80;;
54430;SDS011;40342;52.998;5.862;2023-06-14T12:19:43;1.08;;;0.90;;
54430;SDS011;40342;52.998;5.862;2023-06-14T12:22:10;1.60;;;1.08;;
54430;SDS011;40342;52.998;5.862;2023-06-14T12:24:36;1.10;;;1.00;;
54430;SDS011;40342;52.998;5.862;2023-06-14T12:27:02;1.13;;;0.85;;
54430;SDS011;40342;52.998;5.862;2023-06-14T12:29:29;1.27;;;0.80;;
54430;SDS011;40342;52.998;5.862;2023-06-14T12:31:55;2.17;;;0.82;;
54430;SDS011;40342;52.998;5.862;2023-06-14T12:34:25;1.33;;;0.80;;
54430;SDS011;40342;52.998;5.862;2023-06-14T12:36:52;4.22;;;1.15;;
54430;SDS011;40342;52.998;5.862;2023-06-14T12:39:21;2.08;;;0.70;;
54430;SDS011;40342;52.998;5.862;2023-06-14T12:41:47;0.80;;;0.80;;
54430;SDS011;40342;52.998;5.862;2023-06-14T12:44:13;0.93;;;0.80;;
54430;SDS011;40342;52.998;5.862;2023-06-14T12:46:40;2.35;;;1.05;;
54430;SDS011;40342;52.998;5.862;2023-06-14T12:49:09;1.27;;;0.90;;
54430;SDS011;40342;52.998;5.862;2023-06-14T12:51:36;0.70;;;0.70;;
54430;SDS011;40342;52.998;5.862;2023-06-14T12:54:05;0.70;;;0.70;;
54430;SDS011;40342;52.998;5.862;2023-06-14T12:56:31;2.38;;;0.90;;
54430;SDS011;40342;52.998;5.862;2023-06-14T12:58:56;2.10;;;0.90;;
54430;SDS011;40342;52.998;5.862;2023-06-14T13:01:23;1.33;;;0.80;;
54430;SDS011;40342;52.998;5.862;2023-06-14T13:03:48;0.80;;;0.80;;
54430;SDS011;40342;52.998;5.862;2023-06-14T13:06:16;1.02;;;0.90;;
54430;SDS011;40342;52.998;5.862;2023-06-14T13:08:42;2.58;;;1.00;;
54430;SDS011;40342;52.998;5.862;2023-06-14T13:11:08;0.85;;;0.80;;
54430;SDS011;40342;52.998;5.862;2023-06-14T13:13:34;2.17;;;1.30;;
54430;SDS011;40342;52.998;5.862;2023-06-14T13:16:00;4.30;;;1.10;;
54430;SDS011;40342;52.998;5.862;2023-06-14T13:18:25;0.80;;;0.80;;
54430;SDS011;40342;52.998;5.862;2023-06-14T13:20:51;1.27;;;0.82;;
54430;SDS011;40342;52.998;5.862;2023-06-14T13:23:17;0.95;;;0.93;;
54430;SDS011;40342;52.998;5.862;2023-06-14T13:25:42;1.60;;;0.70;;
54430;SDS011;40342;52.998;5.862;2023-06-14T13:28:09;1.73;;;1.17;;
54430;SDS011;40342;52.998;5.862;2023-06-14T13:30:34;0.82;;;0.70;;
54430;SDS011;40342;52.998;5.862;2023-06-14T13:33:00;3.85;;;1.60;;
54430;SDS011;40342;52.998;5.862;2023-06-14T13:35:26;3.03;;;0.80;;
54430;SDS011;40342;52.998;5.862;2023-06-14T13:37:52;2.83;;;0.98;;
54430;SDS011;40342;52.998;5.862;2023-06-14T13:40:17;4.53;;;1.20;;
54430;SDS011;40342;52.998;5.862;2023-06-14T13:42:43;1.23;;;0.90;;
54430;SDS011;40342;52.998;5.862;2023-06-14T13:45:10;1.20;;;0.80;;
54430;SDS011;40342;52.998;5.862;2023-06-14T13:47:36;2.60;;;0.85;;
54430;SDS011;40342;52.998;5.862;2023-06-14T13:50:03;1.23;;;1.10;;
54430;SDS011;40342;52.998;5.862;2023-06-14T13:52:29;4.40;;;0.88;;
54430;SDS011;40342;52.998;5.862;2023-06-14T13:54:55;1.55;;;0.90;;
54430;SDS011;40342;52.998;5.862;2023-06-14T13:57:22;1.67;;;1.10;;
54430;SDS011;40342;52.998;5.862;2023-06-14T13:59:48;1.95;;;0.95;;
54430;SDS011;40342;52.998;5.862;2023-06-14T14:02:13;1.40;;;1.08;;
54430;SDS011;40342;52.998;5.862;2023-06-14T14:04:39;0.88;;;0.88;;
54430;SDS011;40342;52.998;5.862;2023-06-14T14:07:06;1.00;;;0.90;;
54430;SDS011;40342;52.998;5.862;2023-06-14T14:09:32;1.27;;;0.90;;
54430;SDS011;40342;52.998;5.862;2023-06-14T14:11:59;1.02;;;0.90;;
54430;SDS011;40342;52.998;5.862;2023-06-14T14:14:25;2.50;;;0.70;;
54430;SDS011;40342;52.998;5.862;2023-06-14T14:16:52;1.30;;;1.00;;
54430;SDS011;40342;52.998;5.862;2023-06-14T14:19:19;2.92;;;0.80;;
54430;SDS011;40342;52.998;5.862;2023-06-14T14:21:46;2.03;;;0.60;;
54430;SDS011;40342;52.998;5.862;2023-06-14T14:24:12;2.78;;;0.90;;
54430;SDS011;40342;52.998;5.862;2023-06-14T14:26:38;1.25;;;0.93;;
54430;SDS011;40342;52.998;5.862;2023-06-14T14:29:04;2.88;;;1.00;;
54430;SDS011;40342;52.998;5.862;2023-06-14T14:31:29;1.15;;;0.90;;
54430;SDS011;40342;52.998;5.862;2023-06-14T14:33:55;1.50;;;1.00;;
54430;SDS011;40342;52.998;5.862;2023-06-14T14:36:21;2.45;;;0.70;;
54430;SDS011;40342;52.998;5.862;2023-06-14T14:38:46;3.50;;;0.85;;
54430;SDS011;40342;52.998;5.862;2023-06-14T14:41:12;1.55;;;0.80;;
54430;SDS011;40342;52.998;5.862;2023-06-14T14:43:38;2.08;;;0.80;;
54430;SDS011;40342;52.998;5.862;2023-06-14T14:46:04;0.98;;;0.90;;
54430;SDS011;40342;52.998;5.862;2023-06-14T14:48:30;0.93;;;0.80;;
54430;SDS011;40342;52.998;5.862;2023-06-14T14:50:56;1.05;;;0.95;;
54430;SDS011;40342;52.998;5.862;2023-06-14T14:53:21;0.82;;;0.80;;
54430;SDS011;40342;52.998;5.862;2023-06-14T14:55:47;2.85;;;1.20;;
54430;SDS011;40342;52.998;5.862;2023-06-14T14:58:13;3.90;;;0.90;;
54430;SDS011;40342;52.998;5.862;2023-06-14T15:00:43;0.55;;;0.55;;
54430;SDS011;40342;52.998;5.862;2023-06-14T15:03:12;2.50;;;0.90;;
54430;SDS011;40342;52.998;5.862;2023-06-14T15:05:37;3.83;;;0.80;;
54430;SDS011;40342;52.998;5.862;2023-06-14T15:08:05;1.40;;;0.82;;
54430;SDS011;40342;52.998;5.862;2023-06-14T15:10:36;2.47;;;1.17;;
54430;SDS011;40342;52.998;5.862;2023-06-14T15:13:06;1.58;;;0.80;;